createdAt,value
2022-11-20T00:00:56.897Z,-9.86
2022-11-20T00:01:59.645Z,-9.85
2022-11-20T00:03:03.360Z,-9.84
2022-11-20T00:04:06.084Z,-9.81
2022-11-20T00:05:11.004Z,-9.79
2022-11-20T00:06:15.514Z,-9.79
2022-11-20T00:07:19.349Z,-9.79
2022-11-20T00:08:22.273Z,-9.80
2022-11-20T00:09:26.013Z,-9.78
2022-11-20T00:10:28.854Z,-9.77
2022-11-20T00:11:33.723Z,-9.76
2022-11-20T00:12:36.369Z,-9.77
2022-11-20T00:13:40.692Z,-9.76
2022-11-20T00:14:44.303Z,-9.78
2022-11-20T00:15:47.074Z,-9.80
2022-11-20T00:16:52.163Z,-9.80
2022-11-20T00:17:54.793Z,-9.83
2022-11-20T00:18:58.483Z,-9.83
2022-11-20T00:20:01.101Z,-9.86
2022-11-20T00:21:05.593Z,-9.87
2022-11-20T00:22:08.251Z,-9.86
2022-11-20T00:23:12.096Z,-9.85
2022-11-20T00:24:14.911Z,-9.85
2022-11-20T00:25:18.684Z,-9.85
2022-11-20T00:26:22.532Z,-9.85
2022-11-20T00:27:26.452Z,-9.85
2022-11-20T00:28:29.273Z,-9.85
2022-11-20T00:29:32.943Z,-9.85
2022-11-20T00:30:35.661Z,-9.83
2022-11-20T00:31:39.442Z,-9.83
2022-11-20T00:32:43.481Z,-9.82
2022-11-20T00:33:47.623Z,-9.82
2022-11-20T00:34:50.300Z,-9.84
2022-11-20T00:35:53.969Z,-9.86
2022-11-20T00:36:56.611Z,-9.92
2022-11-20T00:38:00.412Z,-9.97
2022-11-20T00:39:03.365Z,-10.00
2022-11-20T00:40:08.353Z,-10.03
2022-11-20T00:41:12.830Z,-10.03
2022-11-20T00:42:16.703Z,-10.05
2022-11-20T00:43:19.454Z,-10.05
2022-11-20T00:44:23.154Z,-10.04
2022-11-20T00:45:25.832Z,-10.03
2022-11-20T00:46:30.305Z,-10.04
2022-11-20T00:47:32.963Z,-10.05
2022-11-20T00:48:38.303Z,-10.06
2022-11-20T00:49:41.201Z,-10.07
2022-11-20T00:50:44.952Z,-10.10
2022-11-20T00:51:47.634Z,-10.11
2022-11-20T00:52:51.331Z,-10.12
2022-11-20T00:53:56.693Z,-10.13
2022-11-20T00:55:00.397Z,-10.14
2022-11-20T00:56:04.282Z,-10.13
2022-11-20T00:57:07.939Z,-10.13
2022-11-20T00:58:14.260Z,-10.13
2022-11-20T00:59:18.525Z,-10.14
2022-11-20T01:00:21.233Z,-10.15
2022-11-20T01:01:26.493Z,-10.18
2022-11-20T01:02:29.211Z,-10.18
2022-11-20T01:03:34.461Z,-10.19
2022-11-20T01:04:39.550Z,-10.21
2022-11-20T01:05:42.221Z,-10.23
2022-11-20T01:06:45.934Z,-10.24
2022-11-20T01:07:48.649Z,-10.25
2022-11-20T01:08:54.740Z,-10.25
2022-11-20T01:09:57.414Z,-10.25
2022-11-20T01:11:04.892Z,-10.24
2022-11-20T01:12:08.733Z,-10.23
2022-11-20T01:13:30.025Z,-10.24
2022-11-20T01:14:33.783Z,-10.26
2022-11-20T01:15:37.743Z,-10.27
2022-11-20T01:16:42.727Z,-10.26
2022-11-20T01:17:45.411Z,-10.26
2022-11-20T01:18:50.615Z,-10.25
2022-11-20T01:19:54.692Z,-10.23
2022-11-20T01:20:58.477Z,-10.22
2022-11-20T01:22:02.280Z,-10.20
2022-11-20T01:23:05.261Z,-10.19
2022-11-20T01:24:12.362Z,-10.19
2022-11-20T01:27:00.799Z,-10.24
2022-11-20T01:28:03.766Z,-10.25
2022-11-20T01:29:08.016Z,-10.25
2022-11-20T01:30:11.728Z,-10.27
2022-11-20T01:31:17.127Z,-10.29
2022-11-20T01:32:19.776Z,-10.29
2022-11-20T01:33:23.533Z,-10.30
2022-11-20T01:34:26.660Z,-10.31
2022-11-20T01:35:31.736Z,-10.32
2022-11-20T01:36:35.495Z,-10.32
2022-11-20T01:37:39.183Z,-10.32
2022-11-20T01:38:42.365Z,-10.31
2022-11-20T01:39:46.067Z,-10.30
2022-11-20T01:40:55.530Z,-10.31
2022-11-20T01:42:16.876Z,-10.33
2022-11-20T01:43:24.433Z,-10.34
2022-11-20T01:44:49.955Z,-10.37
2022-11-20T01:46:05.108Z,-10.43
2022-11-20T01:47:08.794Z,-10.45
2022-11-20T01:48:13.723Z,-10.46
2022-11-20T01:49:19.544Z,-10.46
2022-11-20T01:50:26.216Z,-10.46
2022-11-20T01:51:33.875Z,-10.45
2022-11-20T01:52:40.378Z,-10.45
2022-11-20T01:53:43.277Z,-10.44
2022-11-20T01:54:51.127Z,-10.43
2022-11-20T01:55:55.215Z,-10.43
2022-11-20T01:57:00.447Z,-10.43
2022-11-20T01:58:03.467Z,-10.43
2022-11-20T01:59:08.487Z,-10.42
2022-11-20T02:00:13.998Z,-10.39
2022-11-20T02:01:17.778Z,-10.39
2022-11-20T02:02:20.977Z,-10.40
2022-11-20T02:03:24.795Z,-10.40
2022-11-20T02:04:27.472Z,-10.42
2022-11-20T02:05:35.408Z,-10.41
2022-11-20T02:06:45.857Z,-10.43
2022-11-20T02:07:48.998Z,-10.42
2022-11-20T02:08:53.819Z,-10.43
2022-11-20T02:09:58.902Z,-10.43
2022-11-20T02:11:02.765Z,-10.43
2022-11-20T02:12:05.825Z,-10.43
2022-11-20T02:13:24.028Z,-10.43
2022-11-20T02:14:28.020Z,-10.43
2022-11-20T02:15:30.705Z,-10.44
2022-11-20T02:16:36.965Z,-10.44
2022-11-20T02:17:40.288Z,-10.44
2022-11-20T02:18:44.769Z,-10.44
2022-11-20T02:19:47.451Z,-10.44
2022-11-20T02:20:53.286Z,-10.44
2022-11-20T02:22:02.133Z,-10.44
2022-11-20T02:23:10.056Z,-10.46
2022-11-20T02:24:17.007Z,-10.46
2022-11-20T02:25:20.457Z,-10.47
2022-11-20T02:26:25.118Z,-10.48
2022-11-20T02:27:28.275Z,-10.49
2022-11-20T02:28:32.258Z,-10.50
2022-11-20T02:29:38.305Z,-10.50
2022-11-20T02:30:42.067Z,-10.50
2022-11-20T02:31:45.247Z,-10.51
2022-11-20T02:32:48.916Z,-10.52
2022-11-20T02:33:56.644Z,-10.53
2022-11-20T02:35:00.618Z,-10.50
2022-11-20T02:36:03.363Z,-10.49
2022-11-20T02:37:07.144Z,-10.48
2022-11-20T02:38:10.182Z,-10.47
2022-11-20T02:39:17.996Z,-10.47
2022-11-20T02:40:20.899Z,-10.46
2022-11-20T02:41:25.116Z,-10.46
2022-11-20T02:42:27.788Z,-10.47
2022-11-20T02:43:31.461Z,-10.47
2022-11-20T02:44:35.203Z,-10.45
2022-11-20T02:45:37.926Z,-10.45
2022-11-20T02:46:41.637Z,-10.45
2022-11-20T02:47:44.294Z,-10.46
2022-11-20T02:48:48.096Z,-10.46
2022-11-20T02:49:50.809Z,-10.46
2022-11-20T02:50:54.465Z,-10.48
2022-11-20T02:51:57.165Z,-10.50
2022-11-20T02:53:00.895Z,-10.52
2022-11-20T02:54:03.718Z,-10.53
2022-11-20T02:55:09.753Z,-10.54
2022-11-20T02:56:12.536Z,-10.54
2022-11-20T02:57:16.310Z,-10.55
2022-11-20T02:58:18.976Z,-10.54
2022-11-20T02:59:23.040Z,-10.54
2022-11-20T03:00:25.986Z,-10.53
2022-11-20T03:01:29.745Z,-10.54
2022-11-20T03:02:32.553Z,-10.52
2022-11-20T03:03:36.458Z,-10.51
2022-11-20T03:04:39.154Z,-10.50
2022-11-20T03:05:42.957Z,-10.48
2022-11-20T03:06:45.737Z,-10.50
2022-11-20T03:07:49.536Z,-10.50
2022-11-20T03:08:52.179Z,-10.50
2022-11-20T03:09:55.875Z,-10.51
2022-11-20T03:11:03.965Z,-10.50
2022-11-20T03:12:08.246Z,-10.53
2022-11-20T03:13:11.030Z,-10.53
2022-11-20T03:14:15.325Z,-10.53
2022-11-20T03:15:18.029Z,-10.54
2022-11-20T03:16:23.666Z,-10.54
2022-11-20T03:17:26.279Z,-10.54
2022-11-20T03:18:30.985Z,-10.53
2022-11-20T03:19:33.745Z,-10.54
2022-11-20T03:20:37.607Z,-10.53
2022-11-20T03:21:40.376Z,-10.53
2022-11-20T03:22:44.138Z,-10.53
2022-11-20T03:23:46.863Z,-10.53
2022-11-20T03:24:50.567Z,-10.55
2022-11-20T03:25:53.507Z,-10.56
2022-11-20T03:26:58.616Z,-10.59
2022-11-20T03:28:01.261Z,-10.62
2022-11-20T03:29:06.897Z,-10.64
2022-11-20T03:30:10.816Z,-10.63
2022-11-20T03:31:16.574Z,-10.64
2022-11-20T03:32:19.214Z,-10.64
2022-11-20T03:33:22.936Z,-10.63
2022-11-20T03:34:25.613Z,-10.62
2022-11-20T03:35:29.448Z,-10.61
2022-11-20T03:36:32.257Z,-10.60
2022-11-20T03:37:35.916Z,-10.60
2022-11-20T03:38:38.665Z,-10.60
2022-11-20T03:39:42.577Z,-10.59
2022-11-20T03:40:45.246Z,-10.61
2022-11-20T03:41:48.940Z,-10.61
2022-11-20T03:42:54.258Z,-10.62
2022-11-20T03:43:59.717Z,-10.61
2022-11-20T03:45:02.370Z,-10.61
2022-11-20T03:46:06.712Z,-10.62
2022-11-20T03:47:09.397Z,-10.63
2022-11-20T03:48:13.098Z,-10.62
2022-11-20T03:49:16.817Z,-10.63
2022-11-20T03:50:19.567Z,-10.62
2022-11-20T03:51:24.409Z,-10.61
2022-11-20T03:52:27.096Z,-10.63
2022-11-20T03:53:30.737Z,-10.64
2022-11-20T03:54:33.478Z,-10.64
2022-11-20T03:55:37.139Z,-10.66
2022-11-20T03:56:40.499Z,-10.65
2022-11-20T03:57:44.244Z,-10.66
2022-11-20T03:58:48.277Z,-10.66
2022-11-20T03:59:52.045Z,-10.66
2022-11-20T04:00:54.685Z,-10.66
2022-11-20T04:01:58.582Z,-10.67
2022-11-20T04:03:02.048Z,-10.66
2022-11-20T04:04:05.888Z,-10.66
2022-11-20T04:05:08.955Z,-10.66
2022-11-20T04:06:15.038Z,-10.67
2022-11-20T04:07:17.764Z,-10.66
2022-11-20T04:08:21.454Z,-10.66
2022-11-20T04:09:24.231Z,-10.66
2022-11-20T04:10:28.046Z,-10.65
2022-11-20T04:11:33.097Z,-10.64
2022-11-20T04:12:35.806Z,-10.63
2022-11-20T04:13:39.657Z,-10.63
2022-11-20T04:14:43.777Z,-10.62
2022-11-20T04:15:47.489Z,-10.63
2022-11-20T04:16:50.125Z,-10.64
2022-11-20T04:17:53.828Z,-10.64
2022-11-20T04:18:57.368Z,-10.65
2022-11-20T04:20:01.039Z,-10.64
2022-11-20T04:21:04.615Z,-10.62
2022-11-20T04:22:08.298Z,-10.63
2022-11-20T04:23:11.115Z,-10.64
2022-11-20T04:24:14.828Z,-10.65
2022-11-20T04:25:17.596Z,-10.67
2022-11-20T04:26:21.480Z,-10.66
2022-11-20T04:27:25.168Z,-10.67
2022-11-20T04:28:27.827Z,-10.67
2022-11-20T04:29:31.547Z,-10.69
2022-11-20T04:30:35.626Z,-10.69
2022-11-20T04:31:39.361Z,-10.67
2022-11-20T04:32:42.128Z,-10.70
2022-11-20T04:33:45.959Z,-10.71
2022-11-20T04:34:48.618Z,-10.73
2022-11-20T04:35:52.308Z,-10.76
2022-11-20T04:36:56.027Z,-10.76
2022-11-20T04:37:58.667Z,-10.78
2022-11-20T04:39:03.830Z,-10.77
2022-11-20T04:40:08.405Z,-10.77
2022-11-20T04:41:16.115Z,-10.76
2022-11-20T04:42:32.028Z,-10.76
2022-11-20T04:43:34.986Z,-10.76
2022-11-20T04:44:38.746Z,-10.76
2022-11-20T04:45:42.855Z,-10.75
2022-11-20T04:46:46.575Z,-10.74
2022-11-20T04:47:49.217Z,-10.73
2022-11-20T04:48:52.897Z,-10.72
2022-11-20T04:49:55.598Z,-10.72
2022-11-20T04:50:59.565Z,-10.72
2022-11-20T04:52:02.193Z,-10.71
2022-11-20T04:53:05.876Z,-10.71
2022-11-20T04:54:08.513Z,-10.71
2022-11-20T04:55:12.320Z,-10.70
2022-11-20T04:56:15.478Z,-10.71
2022-11-20T04:57:19.126Z,-10.71
2022-11-20T04:58:21.867Z,-10.70
2022-11-20T04:59:25.625Z,-10.72
2022-11-20T05:00:28.357Z,-10.72
2022-11-20T05:01:33.776Z,-10.70
2022-11-20T05:02:36.487Z,-10.71
2022-11-20T05:03:42.460Z,-10.70
2022-11-20T05:04:45.456Z,-10.71
2022-11-20T05:05:49.184Z,-10.70
2022-11-20T05:06:51.909Z,-10.71
2022-11-20T05:07:55.597Z,-10.73
2022-11-20T05:08:58.251Z,-10.73
2022-11-20T05:10:01.958Z,-10.74
2022-11-20T05:11:05.997Z,-10.76
2022-11-20T05:12:10.245Z,-10.78
2022-11-20T05:13:13.183Z,-10.79
2022-11-20T05:14:17.067Z,-10.80
2022-11-20T05:15:19.807Z,-10.81
2022-11-20T05:16:25.416Z,-10.82
2022-11-20T05:17:29.687Z,-10.83
2022-11-20T05:18:33.734Z,-10.85
2022-11-20T05:19:36.548Z,-10.85
2022-11-20T05:20:40.220Z,-10.87
2022-11-20T05:21:42.948Z,-10.89
2022-11-20T05:22:46.778Z,-10.90
2022-11-20T05:23:50.449Z,-10.92
2022-11-20T05:24:54.137Z,-10.93
2022-11-20T05:25:59.167Z,-10.95
2022-11-20T05:27:03.240Z,-10.93
2022-11-20T05:28:05.905Z,-10.93
2022-11-20T05:29:11.858Z,-10.92
2022-11-20T05:30:15.477Z,-10.92
2022-11-20T05:31:26.273Z,-10.90
2022-11-20T05:32:31.554Z,-10.89
2022-11-20T05:33:35.888Z,-10.89
2022-11-20T05:34:38.717Z,-10.89
2022-11-20T05:35:42.517Z,-10.88
2022-11-20T05:36:45.169Z,-10.88
2022-11-20T05:37:48.887Z,-10.87
2022-11-20T05:38:52.911Z,-10.87
2022-11-20T05:39:58.325Z,-10.89
2022-11-20T05:41:07.719Z,-10.88
2022-11-20T05:42:28.623Z,-10.88
2022-11-20T05:43:34.674Z,-10.87
2022-11-20T05:44:37.429Z,-10.87
2022-11-20T05:45:41.138Z,-10.87
2022-11-20T05:46:43.831Z,-10.86
2022-11-20T05:47:49.017Z,-10.87
2022-11-20T05:48:51.707Z,-10.86
2022-11-20T05:49:55.498Z,-10.89
2022-11-20T05:50:59.350Z,-10.90
2022-11-20T05:52:03.737Z,-10.92
2022-11-20T05:53:06.357Z,-10.93
2022-11-20T05:54:10.075Z,-10.92
2022-11-20T05:55:12.777Z,-10.91
2022-11-20T05:56:18.276Z,-10.91
2022-11-20T05:57:20.926Z,-10.89
2022-11-20T05:58:24.657Z,-10.89
2022-11-20T05:59:27.347Z,-10.91
2022-11-20T06:00:31.026Z,-10.90
2022-11-20T06:01:33.714Z,-10.92
2022-11-20T06:02:37.757Z,-10.91
2022-11-20T06:03:43.597Z,-10.90
2022-11-20T06:04:47.406Z,-10.89
2022-11-20T06:05:50.117Z,-10.88
2022-11-20T06:06:53.783Z,-10.88
2022-11-20T06:07:56.409Z,-10.89
2022-11-20T06:09:00.736Z,-10.90
2022-11-20T06:10:03.521Z,-10.89
2022-11-20T06:11:08.414Z,-10.88
2022-11-20T06:12:11.041Z,-10.85
2022-11-20T06:13:14.838Z,-10.81
2022-11-20T06:14:17.554Z,-10.79
2022-11-20T06:15:21.352Z,-10.75
2022-11-20T06:16:25.023Z,-10.74
2022-11-20T06:17:27.850Z,-10.74
2022-11-20T06:18:36.074Z,-10.72
2022-11-20T06:19:40.192Z,-10.70
2022-11-20T06:20:43.936Z,-10.70
2022-11-20T06:21:47.762Z,-10.69
2022-11-20T06:22:50.454Z,-10.66
2022-11-20T06:23:55.666Z,-10.66
2022-11-20T06:24:59.465Z,-10.66
2022-11-20T06:26:04.594Z,-10.64
2022-11-20T06:27:08.399Z,-10.64
2022-11-20T06:28:11.124Z,-10.64
2022-11-20T06:29:14.854Z,-10.63
2022-11-20T06:30:17.663Z,-10.62
2022-11-20T06:31:23.172Z,-10.59
2022-11-20T06:32:25.824Z,-10.57
2022-11-20T06:33:29.843Z,-10.55
2022-11-20T06:34:32.577Z,-10.52
2022-11-20T06:35:37.963Z,-10.48
2022-11-20T06:36:40.730Z,-10.44
2022-11-20T06:37:45.078Z,-10.41
2022-11-20T06:38:47.943Z,-10.38
2022-11-20T06:39:51.650Z,-10.36
2022-11-20T06:40:54.803Z,-10.29
2022-11-20T06:41:59.275Z,-10.23
2022-11-20T06:43:02.152Z,-10.14
2022-11-20T06:44:06.791Z,-10.06
2022-11-20T06:45:10.632Z,-9.97
2022-11-20T06:46:15.453Z,-9.91
2022-11-20T06:47:18.163Z,-9.86
2022-11-20T06:48:22.003Z,-9.79
2022-11-20T06:49:24.957Z,-9.72
2022-11-20T06:50:28.922Z,-9.66
2022-11-20T06:51:34.333Z,-9.56
2022-11-20T06:52:42.281Z,-9.47
2022-11-20T06:53:47.416Z,-9.35
2022-11-20T06:54:51.145Z,-9.27
2022-11-20T06:55:54.101Z,-9.13
2022-11-20T06:56:57.763Z,-9.03
2022-11-20T06:58:00.441Z,-8.94
2022-11-20T06:59:07.214Z,-8.87
2022-11-20T07:00:11.275Z,-8.78
2022-11-20T07:01:16.437Z,-8.72
2022-11-20T07:02:19.184Z,-8.66
2022-11-20T07:03:22.823Z,-8.60
2022-11-20T07:04:25.485Z,-8.51
2022-11-20T07:05:29.225Z,-8.42
2022-11-20T07:06:33.353Z,-8.34
2022-11-20T07:07:37.031Z,-8.27
2022-11-20T07:08:39.725Z,-8.22
2022-11-20T07:09:43.452Z,-8.19
2022-11-20T07:10:46.165Z,-8.14
2022-11-20T07:11:49.829Z,-8.09
2022-11-20T07:12:52.743Z,-8.04
2022-11-20T07:13:56.433Z,-7.97
2022-11-20T07:14:59.093Z,-7.88
2022-11-20T07:16:03.361Z,-7.81
2022-11-20T07:17:05.998Z,-7.72
2022-11-20T07:18:09.782Z,-7.64
2022-11-20T07:19:13.511Z,-7.54
2022-11-20T07:20:16.712Z,-7.43
2022-11-20T07:21:20.475Z,-7.29
2022-11-20T07:22:24.675Z,-7.16
2022-11-20T07:23:28.345Z,-7.01
2022-11-20T07:24:32.014Z,-6.89
2022-11-20T07:25:34.772Z,-6.78
2022-11-20T07:26:38.453Z,-6.69
2022-11-20T07:27:41.093Z,-6.62
2022-11-20T07:28:46.883Z,-6.53
2022-11-20T07:29:49.532Z,-6.47
2022-11-20T07:30:53.803Z,-6.41
2022-11-20T07:31:57.804Z,-6.34
2022-11-20T07:33:00.561Z,-6.28
2022-11-20T07:34:04.342Z,-6.23
2022-11-20T07:35:07.734Z,-6.16
2022-11-20T07:36:11.695Z,-6.12
2022-11-20T07:37:14.777Z,-6.02
2022-11-20T07:38:19.922Z,-5.97
2022-11-20T07:39:23.749Z,-5.89
2022-11-20T07:40:26.484Z,-5.82
2022-11-20T07:41:30.224Z,-5.74
2022-11-20T07:42:33.492Z,-5.67
2022-11-20T07:43:41.215Z,-5.60
2022-11-20T07:44:44.500Z,-5.53
2022-11-20T07:45:48.284Z,-5.47
2022-11-20T07:46:52.062Z,-5.42
2022-11-20T07:47:54.733Z,-5.36
2022-11-20T07:48:58.543Z,-5.29
2022-11-20T07:50:01.328Z,-5.24
2022-11-20T07:51:05.281Z,-5.17
2022-11-20T07:52:09.211Z,-5.10
2022-11-20T07:53:13.643Z,-5.05
2022-11-20T07:54:18.934Z,-5.00
2022-11-20T07:55:22.964Z,-4.97
2022-11-20T07:56:26.741Z,-4.92
2022-11-20T07:57:29.486Z,-4.89
2022-11-20T07:58:35.648Z,-4.85
2022-11-20T07:59:40.052Z,-4.81
2022-11-20T08:00:44.680Z,-4.78
2022-11-20T08:01:47.622Z,-4.74
2022-11-20T08:02:51.419Z,-4.71
2022-11-20T08:03:55.356Z,-4.67
2022-11-20T08:04:58.013Z,-4.64
2022-11-20T08:06:02.465Z,-4.59
2022-11-20T08:07:05.356Z,-4.56
2022-11-20T08:08:09.474Z,-4.53
2022-11-20T08:09:13.439Z,-4.48
2022-11-20T08:10:18.274Z,-4.45
2022-11-20T08:11:39.525Z,-4.40
2022-11-20T08:13:04.106Z,-4.39
2022-11-20T08:14:17.025Z,-4.37
2022-11-20T08:15:19.675Z,-4.36
2022-11-20T08:16:23.392Z,-4.36
2022-11-20T08:17:26.032Z,-4.36
2022-11-20T08:18:31.818Z,-4.35
2022-11-20T08:19:35.432Z,-4.35
2022-11-20T08:20:39.171Z,-4.32
2022-11-20T08:21:42.179Z,-4.31
2022-11-20T08:22:46.032Z,-4.27
2022-11-20T08:23:48.712Z,-4.23
2022-11-20T08:24:52.502Z,-4.17
2022-11-20T08:25:56.574Z,-4.09
2022-11-20T08:27:00.584Z,-4.01
2022-11-20T08:28:15.673Z,-3.94
2022-11-20T08:29:24.245Z,-3.86
2022-11-20T08:30:27.432Z,-3.81
2022-11-20T08:31:31.243Z,-3.72
2022-11-20T08:32:36.193Z,-3.64
2022-11-20T08:33:40.002Z,-3.55
2022-11-20T08:34:42.913Z,-3.45
2022-11-20T08:35:47.048Z,-3.35
2022-11-20T08:36:50.865Z,-3.27
2022-11-20T08:37:53.592Z,-3.20
2022-11-20T08:38:58.296Z,-3.09
2022-11-20T08:40:01.075Z,-2.98
2022-11-20T08:41:24.655Z,-2.86
2022-11-20T08:42:28.461Z,-2.70
2022-11-20T08:43:31.104Z,-2.57
2022-11-20T08:44:34.831Z,-2.49
2022-11-20T08:45:37.530Z,-2.37
2022-11-20T08:46:42.848Z,-2.25
2022-11-20T08:47:46.136Z,-2.14
2022-11-20T08:48:52.744Z,-2.01
2022-11-20T08:49:59.524Z,-1.89
2022-11-20T08:51:02.264Z,-1.76
2022-11-20T08:52:06.831Z,-1.65
2022-11-20T08:53:09.756Z,-1.55
2022-11-20T08:54:13.681Z,-1.47
2022-11-20T08:55:16.663Z,-1.41
2022-11-20T08:56:23.310Z,-1.38
2022-11-20T08:57:26.483Z,-1.35
2022-11-20T08:58:31.160Z,-1.27
2022-11-20T09:00:04.370Z,-1.19
2022-11-20T09:00:59.822Z,-1.08
2022-11-20T09:02:03.595Z,-1.02
2022-11-20T09:03:06.333Z,-0.95
2022-11-20T09:04:10.242Z,-0.91
2022-11-20T09:05:13.070Z,-0.90
2022-11-20T09:06:16.873Z,-0.85
2022-11-20T09:07:19.545Z,-0.80
2022-11-20T09:08:23.421Z,-0.77
2022-11-20T09:09:27.155Z,-0.70
2022-11-20T09:10:30.080Z,-0.63
2022-11-20T09:11:35.473Z,-0.59
2022-11-20T09:12:39.215Z,-0.56
2022-11-20T09:13:42.954Z,-0.53
2022-11-20T09:14:47.869Z,-0.47
2022-11-20T09:15:56.044Z,-0.41
2022-11-20T09:16:59.743Z,-0.33
2022-11-20T09:18:03.714Z,-0.28
2022-11-20T09:19:34.690Z,-0.22
2022-11-20T09:20:31.071Z,-0.21
2022-11-20T09:21:34.755Z,-0.25
2022-11-20T09:22:42.608Z,-0.25
2022-11-20T09:23:47.875Z,-0.24
2022-11-20T09:24:51.663Z,-0.18
2022-11-20T09:25:56.533Z,-0.14
2022-11-20T09:27:04.521Z,-0.08
2022-11-20T09:28:07.243Z,-0.06
2022-11-20T09:29:11.111Z,-0.02
2022-11-20T09:30:14.898Z,0.05
2022-11-20T09:31:24.196Z,0.10
2022-11-20T09:32:26.858Z,0.14
2022-11-20T09:33:30.644Z,0.19
2022-11-20T09:34:34.365Z,0.23
2022-11-20T09:35:37.074Z,0.27
2022-11-20T09:36:41.222Z,0.31
2022-11-20T09:37:43.998Z,0.36
2022-11-20T09:38:48.034Z,0.41
2022-11-20T09:39:51.797Z,0.46
2022-11-20T09:40:59.892Z,0.50
2022-11-20T09:42:32.972Z,0.53
2022-11-20T09:43:49.431Z,0.53
2022-11-20T09:45:03.824Z,0.54
2022-11-20T09:46:11.885Z,0.56
2022-11-20T09:47:21.306Z,0.57
2022-11-20T09:48:37.283Z,0.58
2022-11-20T09:49:56.533Z,0.62
2022-11-20T09:51:07.214Z,0.65
2022-11-20T09:52:17.844Z,0.70
2022-11-20T09:53:28.601Z,0.71
2022-11-20T09:54:34.763Z,0.72
2022-11-20T09:55:37.894Z,0.77
2022-11-20T09:56:45.092Z,0.83
2022-11-20T09:57:50.206Z,0.86
2022-11-20T09:58:55.071Z,0.87
2022-11-20T10:00:00.550Z,0.89
2022-11-20T10:01:11.784Z,0.91
2022-11-20T10:02:18.619Z,0.95
2022-11-20T10:03:29.359Z,0.97
2022-11-20T10:04:36.887Z,1.02
2022-11-20T10:05:47.044Z,1.06
2022-11-20T10:07:30.307Z,1.08
2022-11-20T10:08:24.717Z,1.13
2022-11-20T10:09:32.133Z,1.21
2022-11-20T10:10:43.578Z,1.26
2022-11-20T10:11:53.914Z,1.34
2022-11-20T10:13:08.221Z,1.41
2022-11-20T10:14:19.152Z,1.51
2022-11-20T10:15:31.172Z,1.60
2022-11-20T10:16:42.917Z,1.67
2022-11-20T10:18:01.646Z,1.71
2022-11-20T10:19:17.469Z,1.74
2022-11-20T10:20:27.306Z,1.73
2022-11-20T10:21:34.814Z,1.73
2022-11-20T10:22:50.765Z,1.77
2022-11-20T10:24:40.597Z,1.82
2022-11-20T10:25:47.773Z,1.88
2022-11-20T10:26:57.975Z,1.96
2022-11-20T10:28:22.896Z,2.01
2022-11-20T10:29:31.693Z,2.02
2022-11-20T10:30:38.383Z,2.07
2022-11-20T10:31:43.408Z,2.14
2022-11-20T10:32:49.133Z,2.23
2022-11-20T10:34:11.736Z,2.31
2022-11-20T10:35:23.903Z,2.42
2022-11-20T10:36:28.854Z,2.51
2022-11-20T10:37:34.311Z,2.56
2022-11-20T10:38:40.743Z,2.60
2022-11-20T10:39:50.486Z,2.64
2022-11-20T10:41:19.983Z,2.69
2022-11-20T10:42:27.564Z,2.67
2022-11-20T10:43:36.099Z,2.69
2022-11-20T10:45:02.776Z,2.68
2022-11-20T10:46:13.200Z,2.61
2022-11-20T10:47:17.472Z,2.59
2022-11-20T10:48:28.412Z,2.56
2022-11-20T10:49:35.022Z,2.57
2022-11-20T10:50:43.045Z,2.60
2022-11-20T10:51:56.764Z,2.66
2022-11-20T10:53:06.084Z,2.65
2022-11-20T10:54:18.770Z,2.64
2022-11-20T10:55:31.263Z,2.65
2022-11-20T10:56:42.379Z,2.68
2022-11-20T10:57:56.771Z,2.69
2022-11-20T10:59:25.980Z,2.69
2022-11-20T11:00:32.854Z,2.63
2022-11-20T11:01:41.968Z,2.63
2022-11-20T11:02:49.405Z,2.64
2022-11-20T11:03:53.179Z,2.65
2022-11-20T11:04:57.384Z,2.65
2022-11-20T11:06:04.964Z,2.62
2022-11-20T11:07:13.920Z,2.62
2022-11-20T11:08:20.153Z,2.61
2022-11-20T11:09:28.513Z,2.60
2022-11-20T11:10:39.102Z,2.60
2022-11-20T11:11:42.831Z,2.63
2022-11-20T11:12:47.478Z,2.61
2022-11-20T11:13:51.557Z,2.61
2022-11-20T11:14:57.881Z,2.63
2022-11-20T11:16:00.701Z,2.64
2022-11-20T11:17:04.475Z,2.65
2022-11-20T11:18:11.541Z,2.64
2022-11-20T11:19:17.315Z,2.64
2022-11-20T11:20:22.347Z,2.64
2022-11-20T11:21:26.162Z,2.60
2022-11-20T11:22:32.945Z,2.57
2022-11-20T11:23:39.264Z,2.56
2022-11-20T11:24:53.212Z,2.55
2022-11-20T11:25:59.843Z,2.55
2022-11-20T11:27:13.714Z,2.58
2022-11-20T11:28:25.962Z,2.55
2022-11-20T11:29:30.654Z,2.52
2022-11-20T11:30:46.376Z,2.49
2022-11-20T11:31:49.101Z,2.46
2022-11-20T11:32:52.964Z,2.44
2022-11-20T11:34:06.783Z,2.44
2022-11-20T11:35:23.924Z,2.41
2022-11-20T11:36:28.333Z,2.38
2022-11-20T11:37:37.810Z,2.34
2022-11-20T11:38:44.232Z,2.33
2022-11-20T11:39:55.066Z,2.28
2022-11-20T11:41:10.649Z,2.21
2022-11-20T11:42:14.990Z,2.21
2022-11-20T11:43:39.254Z,2.19
2022-11-20T11:45:04.408Z,2.19
2022-11-20T11:46:28.533Z,2.21
2022-11-20T11:47:34.405Z,2.17
2022-11-20T11:48:37.072Z,2.14
2022-11-20T11:49:41.472Z,2.12
2022-11-20T11:50:50.293Z,2.09
2022-11-20T11:52:07.662Z,2.04
2022-11-20T11:53:14.762Z,2.02
2022-11-20T11:54:21.235Z,2.03
2022-11-20T11:55:31.033Z,2.04
2022-11-20T11:56:35.993Z,2.03
2022-11-20T11:57:43.126Z,2.04
2022-11-20T11:58:49.495Z,2.03
2022-11-20T12:00:02.240Z,2.01
2022-11-20T12:01:14.799Z,2.01
2022-11-20T12:02:26.650Z,2.00
2022-11-20T12:03:37.488Z,1.99
2022-11-20T12:04:46.095Z,1.97
2022-11-20T12:05:52.127Z,1.97
2022-11-20T12:06:59.740Z,1.98
2022-11-20T12:08:12.390Z,1.99
2022-11-20T12:09:16.704Z,2.01
2022-11-20T12:10:23.145Z,2.04
2022-11-20T12:11:33.647Z,2.04
2022-11-20T12:12:38.746Z,2.04
2022-11-20T12:13:51.203Z,2.03
2022-11-20T12:14:55.652Z,2.04
2022-11-20T12:15:59.394Z,2.06
2022-11-20T12:17:03.884Z,2.08
2022-11-20T12:18:11.074Z,2.08
2022-11-20T12:19:16.590Z,2.10
2022-11-20T12:20:19.502Z,2.13
2022-11-20T12:21:30.696Z,2.18
2022-11-20T12:22:40.016Z,2.17
2022-11-20T12:24:03.014Z,2.16
2022-11-20T12:25:10.074Z,2.12
2022-11-20T12:26:21.211Z,2.12
2022-11-20T12:27:57.564Z,2.13
2022-11-20T12:29:08.433Z,2.14
2022-11-20T12:30:12.343Z,2.17
2022-11-20T12:31:24.223Z,2.22
2022-11-20T12:32:57.068Z,2.24
2022-11-20T12:34:12.053Z,2.25
2022-11-20T12:35:32.004Z,2.29
2022-11-20T12:36:41.666Z,2.33
2022-11-20T12:37:51.246Z,2.38
2022-11-20T12:39:05.105Z,2.45
2022-11-20T12:40:20.217Z,2.46
2022-11-20T12:41:54.256Z,2.47
2022-11-20T12:43:25.864Z,2.48
2022-11-20T12:45:11.765Z,2.47
2022-11-20T12:46:22.231Z,2.51
2022-11-20T12:47:31.621Z,2.53
2022-11-20T12:48:54.696Z,2.62
2022-11-20T12:50:04.392Z,2.71
2022-11-20T12:51:23.384Z,2.85
2022-11-20T12:52:40.872Z,2.95
2022-11-20T12:53:52.955Z,3.00
2022-11-20T12:55:13.081Z,2.97
2022-11-20T12:56:25.203Z,2.91
2022-11-20T12:57:33.913Z,2.83
2022-11-20T12:58:42.520Z,2.76
2022-11-20T13:00:12.119Z,2.71
2022-11-20T13:01:40.297Z,2.59
2022-11-20T13:02:59.254Z,2.52
2022-11-20T13:04:10.533Z,2.65
2022-11-20T13:05:27.067Z,2.81
2022-11-20T13:06:31.073Z,2.85
2022-11-20T13:07:34.674Z,2.91
2022-11-20T13:08:41.243Z,3.10
2022-11-20T13:09:46.444Z,3.30
2022-11-20T13:10:53.465Z,3.50
2022-11-20T13:12:05.356Z,3.76
2022-11-20T13:13:14.837Z,3.96
2022-11-20T13:14:31.922Z,4.05
2022-11-20T13:15:48.276Z,4.02
2022-11-20T13:16:54.982Z,3.89
2022-11-20T13:18:00.026Z,3.78
2022-11-20T13:19:06.694Z,3.82
2022-11-20T13:20:16.510Z,3.87
2022-11-20T13:21:21.984Z,3.91
2022-11-20T13:22:28.169Z,4.02
2022-11-20T13:23:31.964Z,4.07
2022-11-20T13:24:35.682Z,4.12
2022-11-20T13:25:40.026Z,4.17
2022-11-20T13:26:44.152Z,4.21
2022-11-20T13:27:48.917Z,4.09
2022-11-20T13:29:05.132Z,3.87
2022-11-20T13:30:16.145Z,3.67
2022-11-20T13:31:33.934Z,3.45
2022-11-20T13:32:36.614Z,3.31
2022-11-20T13:33:40.975Z,3.22
2022-11-20T13:34:57.180Z,3.08
2022-11-20T13:36:02.205Z,3.06
2022-11-20T13:37:06.133Z,3.16
2022-11-20T13:38:10.204Z,3.24
2022-11-20T13:39:13.934Z,3.31
2022-11-20T13:40:25.952Z,3.37
2022-11-20T13:41:32.647Z,3.43
2022-11-20T13:42:40.042Z,3.43
2022-11-20T13:43:44.520Z,3.45
2022-11-20T13:44:50.873Z,3.41
2022-11-20T13:45:58.694Z,3.33
2022-11-20T13:47:02.405Z,3.23
2022-11-20T13:48:17.725Z,3.08
2022-11-20T13:49:27.942Z,2.87
2022-11-20T13:50:54.513Z,2.68
2022-11-20T13:52:06.804Z,2.52
2022-11-20T13:53:21.844Z,2.49
2022-11-20T13:54:52.745Z,2.42
2022-11-20T13:56:02.362Z,2.26
2022-11-20T13:57:14.731Z,2.19
2022-11-20T13:58:26.065Z,2.09
2022-11-20T13:59:42.681Z,1.97
2022-11-20T14:00:47.358Z,1.85
2022-11-20T14:01:51.335Z,1.74
2022-11-20T14:03:04.556Z,1.64
2022-11-20T14:04:10.684Z,1.51
2022-11-20T14:05:20.555Z,1.39
2022-11-20T14:06:30.170Z,1.26
2022-11-20T14:07:37.655Z,1.16
2022-11-20T14:08:42.725Z,1.05
2022-11-20T14:09:52.614Z,0.97
2022-11-20T14:11:06.385Z,0.87
2022-11-20T14:12:18.943Z,0.78
2022-11-20T14:13:22.533Z,0.70